createdAt,value
2023-02-22T00:01:02.967Z,5.20
2023-02-22T00:03:35.073Z,5.20
2023-02-22T00:06:05.085Z,5.10
2023-02-22T00:08:34.289Z,5.00
2023-02-22T00:11:09.462Z,4.90
2023-02-22T00:13:37.929Z,4.90
2023-02-22T00:16:05.751Z,4.80
2023-02-22T00:18:32.899Z,4.80
2023-02-22T00:21:00.794Z,4.80
2023-02-22T00:23:30.078Z,4.70
2023-02-22T00:25:58.978Z,4.60
2023-02-22T00:28:26.170Z,4.60
2023-02-22T00:30:54.980Z,4.60
2023-02-22T00:33:22.643Z,4.60
2023-02-22T00:35:49.948Z,4.60
2023-02-22T00:38:18.675Z,4.70
2023-02-22T00:40:46.005Z,4.70
2023-02-22T00:43:13.611Z,4.70
2023-02-22T00:45:41.301Z,4.80
2023-02-22T00:48:09.473Z,4.70
2023-02-22T00:50:37.055Z,4.70
2023-02-22T00:53:07.466Z,4.60
2023-02-22T00:55:36.395Z,4.70
2023-02-22T00:58:04.340Z,4.60
2023-02-22T01:00:38.660Z,4.50
2023-02-22T01:03:11.282Z,4.50
2023-02-22T01:05:38.614Z,4.50
2023-02-22T01:08:07.577Z,4.30
2023-02-22T01:10:36.043Z,4.30
2023-02-22T01:13:09.005Z,4.30
2023-02-22T01:15:39.096Z,4.30
2023-02-22T01:18:07.337Z,4.20
2023-02-22T01:20:34.755Z,4.20
2023-02-22T01:23:03.656Z,4.20
2023-02-22T01:25:31.525Z,4.10
2023-02-22T01:28:00.323Z,4.10
2023-02-22T01:30:33.282Z,4.00
2023-02-22T01:33:02.582Z,4.10
2023-02-22T01:35:33.010Z,4.00
2023-02-22T01:38:00.210Z,3.90
2023-02-22T01:40:42.015Z,3.90
2023-02-22T01:43:35.774Z,4.00
2023-02-22T01:46:24.339Z,4.00
2023-02-22T01:49:00.733Z,4.00
2023-02-22T01:51:37.752Z,3.90
2023-02-22T01:54:19.329Z,4.00
2023-02-22T01:57:01.507Z,3.90
2023-02-22T01:59:33.371Z,3.90
2023-02-22T02:02:00.777Z,3.80
2023-02-22T02:04:28.590Z,3.90
2023-02-22T02:07:00.349Z,3.90
2023-02-22T02:10:04.374Z,3.80
2023-02-22T02:12:35.792Z,3.80
2023-02-22T02:15:25.380Z,3.70
2023-02-22T02:17:54.415Z,3.80
2023-02-22T02:20:37.337Z,3.80
2023-02-22T02:23:16.702Z,3.80
2023-02-22T02:25:58.464Z,3.80
2023-02-22T02:28:37.321Z,3.80
2023-02-22T02:31:38.262Z,3.80
2023-02-22T02:34:21.957Z,3.80
2023-02-22T02:36:56.862Z,3.80
2023-02-22T02:39:33.649Z,3.80
2023-02-22T02:42:06.294Z,3.70
2023-02-22T02:44:40.184Z,3.70
2023-02-22T02:47:14.480Z,3.70
2023-02-22T02:49:50.087Z,3.60
2023-02-22T02:52:19.390Z,3.60
2023-02-22T02:54:47.263Z,3.60
2023-02-22T02:57:14.435Z,3.60
2023-02-22T02:59:41.446Z,3.60
2023-02-22T03:02:17.351Z,3.50
2023-02-22T03:05:22.205Z,3.40
2023-02-22T03:08:04.849Z,3.40
2023-02-22T03:10:53.789Z,3.50
2023-02-22T03:13:40.454Z,3.40
2023-02-22T03:16:15.389Z,3.40
2023-02-22T03:19:07.889Z,3.40
2023-02-22T03:21:57.280Z,3.40
2023-02-22T03:24:37.441Z,3.40
2023-02-22T03:27:09.524Z,3.30
2023-02-22T03:29:42.880Z,3.20
2023-02-22T03:32:15.860Z,3.20
2023-02-22T03:34:47.976Z,3.10
2023-02-22T03:37:18.988Z,3.10
2023-02-22T03:39:48.014Z,3.10
2023-02-22T03:42:24.147Z,3.10
2023-02-22T03:44:54.759Z,3.10
2023-02-22T03:47:28.406Z,3.00
2023-02-22T03:50:01.968Z,3.00
2023-02-22T03:52:29.513Z,2.90
2023-02-22T03:54:56.658Z,3.00
2023-02-22T03:57:32.074Z,2.90
2023-02-22T03:59:59.363Z,2.90
2023-02-22T04:02:26.841Z,2.70
2023-02-22T04:04:54.168Z,2.80
2023-02-22T04:07:21.592Z,2.70
2023-02-22T04:09:49.275Z,2.60
2023-02-22T04:12:16.369Z,2.60
2023-02-22T04:14:43.601Z,2.60
2023-02-22T04:17:10.880Z,2.60
2023-02-22T04:19:38.076Z,2.70
2023-02-22T04:22:05.286Z,2.70
2023-02-22T04:24:32.272Z,2.60
2023-02-22T04:26:59.194Z,2.70
2023-02-22T04:29:26.280Z,2.60
2023-02-22T04:31:53.410Z,2.50
2023-02-22T04:34:20.455Z,2.50
2023-02-22T04:36:47.583Z,2.40
2023-02-22T04:39:15.083Z,2.40
2023-02-22T04:41:42.386Z,2.40
2023-02-22T04:44:09.644Z,2.40
2023-02-22T04:46:36.705Z,2.40
2023-02-22T04:49:04.090Z,2.40
2023-02-22T04:51:31.444Z,2.40
2023-02-22T04:53:58.597Z,2.50
2023-02-22T04:56:25.850Z,2.50
2023-02-22T04:58:53.065Z,2.50
2023-02-22T05:01:20.171Z,2.50
2023-02-22T05:03:47.323Z,2.50
2023-02-22T05:06:14.503Z,2.30
2023-02-22T05:08:41.591Z,2.30
2023-02-22T05:11:08.642Z,2.30
2023-02-22T05:13:36.062Z,2.30
2023-02-22T05:16:03.898Z,2.20
2023-02-22T05:18:30.874Z,2.10
2023-02-22T05:20:57.867Z,2.20
2023-02-22T05:23:25.091Z,2.20
2023-02-22T05:25:52.043Z,2.10
2023-02-22T05:28:19.176Z,2.20
2023-02-22T05:30:46.461Z,2.10
2023-02-22T05:33:13.423Z,2.10
2023-02-22T05:35:40.468Z,2.10
2023-02-22T05:38:08.028Z,2.10
2023-02-22T05:40:35.147Z,2.10
2023-02-22T05:43:02.792Z,2.10
2023-02-22T05:45:30.305Z,2.10
2023-02-22T05:47:57.887Z,2.10
2023-02-22T05:50:25.220Z,2.10
2023-02-22T05:52:53.151Z,2.10
2023-02-22T05:55:22.100Z,2.10
2023-02-22T05:57:49.481Z,2.10
2023-02-22T06:00:27.459Z,2.10
2023-02-22T06:03:14.861Z,2.10
2023-02-22T06:05:42.445Z,2.10
2023-02-22T06:08:09.560Z,2.20
2023-02-22T06:10:36.899Z,2.10
2023-02-22T06:13:05.427Z,2.10
2023-02-22T06:15:32.732Z,2.20
2023-02-22T06:18:00.536Z,2.10
2023-02-22T06:20:30.153Z,2.10
2023-02-22T06:22:58.906Z,2.10
2023-02-22T06:25:31.213Z,2.10
2023-02-22T06:27:59.464Z,2.10
2023-02-22T06:30:27.847Z,2.10
2023-02-22T06:32:55.117Z,2.00
2023-02-22T06:35:22.902Z,2.00
2023-02-22T06:37:50.041Z,2.00
2023-02-22T06:40:17.584Z,2.00
2023-02-22T06:42:48.954Z,2.10
2023-02-22T06:45:18.215Z,2.10
2023-02-22T06:47:45.680Z,2.20
2023-02-22T06:50:30.612Z,2.20
2023-02-22T06:52:57.984Z,2.30
2023-02-22T06:55:30.993Z,2.30
2023-02-22T06:57:59.418Z,2.40
2023-02-22T07:00:28.846Z,2.40
2023-02-22T07:02:57.116Z,2.50
2023-02-22T07:05:26.022Z,2.50
2023-02-22T07:07:55.242Z,2.50
2023-02-22T07:10:26.158Z,2.50
2023-02-22T07:12:54.165Z,2.60
2023-02-22T07:15:23.664Z,2.60
2023-02-22T07:17:51.598Z,2.70
2023-02-22T07:20:20.736Z,2.80
2023-02-22T07:22:49.248Z,2.80
2023-02-22T07:25:16.747Z,2.80
2023-02-22T07:27:44.114Z,2.90
2023-02-22T07:30:26.007Z,3.00
2023-02-22T07:32:54.881Z,3.10
2023-02-22T07:35:30.985Z,3.20
2023-02-22T07:37:58.833Z,3.30
2023-02-22T07:40:27.397Z,3.40
2023-02-22T07:42:55.609Z,3.50
2023-02-22T07:45:25.192Z,3.50
2023-02-22T07:47:52.449Z,3.50
2023-02-22T07:50:22.243Z,3.50
2023-02-22T07:52:52.761Z,3.60
2023-02-22T07:55:25.873Z,3.60
2023-02-22T07:57:55.402Z,3.60
2023-02-22T08:00:32.710Z,3.70
2023-02-22T08:03:02.256Z,3.80
2023-02-22T08:05:32.084Z,3.90
2023-02-22T08:07:59.258Z,4.00
2023-02-22T08:10:27.376Z,4.10
2023-02-22T08:12:55.993Z,4.20
2023-02-22T08:15:32.117Z,4.30
2023-02-22T08:18:01.061Z,4.50
2023-02-22T08:20:29.662Z,4.60
2023-02-22T08:22:57.851Z,4.70
2023-02-22T08:25:27.763Z,4.90
2023-02-22T08:28:02.575Z,5.00
2023-02-22T08:30:30.824Z,5.20
2023-02-22T08:32:59.204Z,5.40
2023-02-22T08:35:27.528Z,5.60
2023-02-22T08:37:58.908Z,5.90
2023-02-22T08:40:28.275Z,6.10
2023-02-22T08:42:55.781Z,6.30
2023-02-22T08:45:23.345Z,6.60
2023-02-22T08:47:50.883Z,6.70
2023-02-22T08:50:30.613Z,6.90
2023-02-22T08:52:59.476Z,7.20
2023-02-22T08:55:30.130Z,7.50
2023-02-22T08:57:57.184Z,7.80
2023-02-22T09:00:29.471Z,8.10
2023-02-22T09:02:56.544Z,8.60
2023-02-22T09:05:23.837Z,8.60
2023-02-22T09:07:50.824Z,8.80
2023-02-22T09:10:26.722Z,9.10
2023-02-22T09:12:57.112Z,9.30
2023-02-22T09:15:25.568Z,9.50
2023-02-22T09:17:53.765Z,9.70
2023-02-22T09:20:23.033Z,9.80
2023-02-22T09:22:50.426Z,9.90
2023-02-22T09:25:20.637Z,10.00
2023-02-22T09:27:51.367Z,10.10
2023-02-22T09:30:34.034Z,10.30
2023-02-22T09:33:09.910Z,10.50
2023-02-22T09:35:42.459Z,10.50
2023-02-22T09:38:11.453Z,10.70
2023-02-22T09:40:45.255Z,10.70
2023-02-22T09:43:31.414Z,10.80
2023-02-22T09:46:21.405Z,11.00
2023-02-22T09:49:00.458Z,11.00
2023-02-22T09:51:35.784Z,11.00
2023-02-22T09:54:06.128Z,11.10
2023-02-22T09:56:33.988Z,11.20
2023-02-22T09:59:04.154Z,11.40
2023-02-22T10:01:48.413Z,11.50
2023-02-22T10:04:36.742Z,11.70
2023-02-22T10:07:26.150Z,11.90
2023-02-22T10:09:56.605Z,12.00
2023-02-22T10:12:28.461Z,12.20
2023-02-22T10:15:23.596Z,12.30
2023-02-22T10:18:42.499Z,12.40
2023-02-22T10:21:36.725Z,12.60
2023-02-22T10:24:27.436Z,12.80
2023-02-22T10:26:56.328Z,12.90
2023-02-22T10:29:37.730Z,13.00
2023-02-22T10:32:05.721Z,13.10
2023-02-22T10:34:48.578Z,13.10
2023-02-22T10:37:25.586Z,13.20
2023-02-22T10:40:05.432Z,13.30
2023-02-22T10:42:32.779Z,13.50
2023-02-22T10:45:00.347Z,13.60
2023-02-22T10:47:28.006Z,13.40
2023-02-22T10:50:00.899Z,13.30
2023-02-22T10:52:36.074Z,13.30
2023-02-22T10:55:15.220Z,13.40
2023-02-22T10:57:46.459Z,13.50
2023-02-22T11:00:26.452Z,13.80
2023-02-22T11:03:01.098Z,14.10
2023-02-22T11:05:31.103Z,14.40
2023-02-22T11:08:16.808Z,14.70
2023-02-22T11:10:44.222Z,14.50
2023-02-22T11:13:18.883Z,14.70
2023-02-22T11:15:45.808Z,14.80
2023-02-22T11:18:39.072Z,15.00
2023-02-22T11:21:11.540Z,15.10
2023-02-22T11:23:44.298Z,15.00
2023-02-22T11:26:20.415Z,14.90
2023-02-22T11:28:51.131Z,15.00
2023-02-22T11:31:30.122Z,15.10
2023-02-22T11:34:00.567Z,15.30
2023-02-22T11:36:40.875Z,15.40
2023-02-22T11:39:29.109Z,15.20
2023-02-22T11:41:57.041Z,14.90
2023-02-22T11:44:28.442Z,14.30
2023-02-22T11:47:01.176Z,13.90
2023-02-22T11:49:38.195Z,14.00
2023-02-22T11:52:10.687Z,14.10
2023-02-22T11:55:09.927Z,14.00
2023-02-22T11:57:46.845Z,13.90
2023-02-22T12:00:41.356Z,14.10
2023-02-22T12:03:54.814Z,14.00
2023-02-22T12:06:48.585Z,13.90
2023-02-22T12:10:11.812Z,14.10
2023-02-22T12:13:03.886Z,14.30
2023-02-22T12:15:48.498Z,14.40
2023-02-22T12:18:58.878Z,14.60
2023-02-22T12:21:29.861Z,14.90
2023-02-22T12:24:02.207Z,14.90
2023-02-22T12:26:29.074Z,15.10
2023-02-22T12:28:59.850Z,15.40
2023-02-22T12:31:47.401Z,15.30
2023-02-22T12:34:43.690Z,15.20
2023-02-22T12:37:34.769Z,15.40
2023-02-22T12:40:16.712Z,15.70
2023-02-22T12:42:56.916Z,15.50
2023-02-22T12:45:45.499Z,15.40
2023-02-22T12:48:46.123Z,15.70
2023-02-22T12:51:41.271Z,16.30
2023-02-22T12:54:32.262Z,16.80
2023-02-22T12:57:14.108Z,16.60
2023-02-22T12:59:52.365Z,16.60
2023-02-22T13:02:22.806Z,16.80
2023-02-22T13:04:50.161Z,16.90
2023-02-22T13:07:20.146Z,17.10
2023-02-22T13:09:59.501Z,16.60
2023-02-22T13:12:38.844Z,16.70
2023-02-22T13:15:24.851Z,17.10
2023-02-22T13:18:03.854Z,17.60
2023-02-22T13:20:39.298Z,17.90
2023-02-22T13:23:15.234Z,18.20
2023-02-22T13:25:48.583Z,18.20
2023-02-22T13:28:21.848Z,18.30
2023-02-22T13:31:11.020Z,18.40
2023-02-22T13:33:47.176Z,18.00
2023-02-22T13:36:33.781Z,17.70
2023-02-22T13:39:29.602Z,17.40
2023-02-22T13:42:32.103Z,17.20
2023-02-22T13:45:12.978Z,17.00
2023-02-22T13:48:04.370Z,16.60
2023-02-22T13:50:56.370Z,16.20
2023-02-22T13:53:28.794Z,16.20
2023-02-22T13:55:59.452Z,16.30
2023-02-22T13:58:27.139Z,16.40
2023-02-22T14:00:59.393Z,16.50
2023-02-22T14:03:36.429Z,16.70
2023-02-22T14:06:05.709Z,16.30
2023-02-22T14:08:33.775Z,16.00
2023-02-22T14:11:14.422Z,16.00
2023-02-22T14:13:55.182Z,16.10
2023-02-22T14:16:27.642Z,16.30
2023-02-22T14:19:16.643Z,16.40
2023-02-22T14:22:03.540Z,16.70
2023-02-22T14:24:45.237Z,16.70
2023-02-22T14:27:14.740Z,16.80
2023-02-22T14:30:00.478Z,16.90
2023-02-22T14:32:33.002Z,16.80
2023-02-22T14:35:06.314Z,16.60
2023-02-22T14:37:42.665Z,16.50
2023-02-22T14:40:25.886Z,16.30
2023-02-22T14:43:12.888Z,16.30
2023-02-22T14:45:47.585Z,16.10
2023-02-22T14:48:45.379Z,16.10
2023-02-22T14:51:22.397Z,16.30
2023-02-22T14:53:54.843Z,16.40
2023-02-22T14:56:26.918Z,16.50
2023-02-22T14:59:07.997Z,16.20
2023-02-22T15:01:52.739Z,16.10
2023-02-22T15:04:28.665Z,16.00
2023-02-22T15:06:57.833Z,15.90
2023-02-22T15:09:29.784Z,15.80
2023-02-22T15:12:04.174Z,15.70
2023-02-22T15:14:39.193Z,15.90
2023-02-22T15:17:16.148Z,15.80
2023-02-22T15:19:43.398Z,15.80
2023-02-22T15:22:35.675Z,15.60
2023-02-22T15:25:06.595Z,15.50
2023-02-22T15:27:37.220Z,15.50
2023-02-22T15:30:16.718Z,15.40
2023-02-22T15:33:01.309Z,15.40
2023-02-22T15:35:34.141Z,15.10
2023-02-22T15:38:20.130Z,15.20
2023-02-22T15:40:50.839Z,15.10
2023-02-22T15:43:24.346Z,15.00
2023-02-22T15:45:52.704Z,14.80
2023-02-22T15:48:20.124Z,14.70
2023-02-22T15:51:06.679Z,14.70
2023-02-22T15:53:47.292Z,14.60
2023-02-22T15:56:20.012Z,14.50
2023-02-22T15:58:47.998Z,14.40
2023-02-22T16:01:19.401Z,14.30
2023-02-22T16:03:50.442Z,14.30
2023-02-22T16:06:41.636Z,14.30
2023-02-22T16:09:15.141Z,14.20
2023-02-22T16:11:44.914Z,14.30
2023-02-22T16:14:31.495Z,14.20
2023-02-22T16:17:13.213Z,14.10
2023-02-22T16:19:44.803Z,14.10
2023-02-22T16:22:26.836Z,14.10
2023-02-22T16:24:55.140Z,14.10
2023-02-22T16:27:24.562Z,14.10
2023-02-22T16:30:29.027Z,14.00
2023-02-22T16:32:57.261Z,14.00
2023-02-22T16:35:29.127Z,13.90
2023-02-22T16:38:08.061Z,13.90
2023-02-22T16:40:41.588Z,13.80
2023-02-22T16:43:20.684Z,13.80
2023-02-22T16:45:48.177Z,13.80
2023-02-22T16:48:19.892Z,13.70
2023-02-22T16:50:50.240Z,13.60
2023-02-22T16:53:21.251Z,13.60
2023-02-22T16:55:49.758Z,13.50
2023-02-22T16:58:19.138Z,13.40
2023-02-22T17:00:46.146Z,13.40
2023-02-22T17:03:20.705Z,13.40
2023-02-22T17:05:47.679Z,13.30
2023-02-22T17:08:16.440Z,13.40
2023-02-22T17:10:43.892Z,13.30
2023-02-22T17:13:22.456Z,13.20
2023-02-22T17:15:52.022Z,13.10
2023-02-22T17:18:22.775Z,13.00
2023-02-22T17:20:51.387Z,12.90
2023-02-22T17:23:19.216Z,12.80
2023-02-22T17:25:53.968Z,12.80
2023-02-22T17:28:22.056Z,12.70
2023-02-22T17:30:49.500Z,12.70
2023-02-22T17:33:19.664Z,12.60
2023-02-22T17:35:47.427Z,12.50
2023-02-22T17:38:18.788Z,12.50
2023-02-22T17:40:56.389Z,12.40
2023-02-22T17:43:25.131Z,12.30
2023-02-22T17:45:53.861Z,12.20
2023-02-22T17:48:23.792Z,12.10
2023-02-22T17:50:51.069Z,12.10
2023-02-22T17:53:21.809Z,12.00
2023-02-22T17:55:49.617Z,12.00
2023-02-22T17:58:17.206Z,11.90
2023-02-22T18:00:46.703Z,11.80
2023-02-22T18:03:17.490Z,11.80
2023-02-22T18:05:48.644Z,11.80
2023-02-22T18:08:16.382Z,11.80
2023-02-22T18:10:44.736Z,11.80
2023-02-22T18:13:19.669Z,11.80
2023-02-22T18:15:47.446Z,11.70
2023-02-22T18:18:16.183Z,11.70
2023-02-22T18:20:44.905Z,11.60
2023-02-22T18:23:16.934Z,11.50
2023-02-22T18:26:03.711Z,11.50
2023-02-22T18:28:36.412Z,11.50
2023-02-22T18:31:08.697Z,11.50
2023-02-22T18:33:35.866Z,11.40
2023-02-22T18:36:03.047Z,11.40
2023-02-22T18:38:30.153Z,11.40
2023-02-22T18:41:05.838Z,11.30
2023-02-22T18:43:36.329Z,11.40
2023-02-22T18:46:30.350Z,11.40
2023-02-22T18:48:57.725Z,11.30
2023-02-22T18:51:26.517Z,11.30
2023-02-22T18:54:00.366Z,11.20
2023-02-22T18:56:31.883Z,11.10
2023-02-22T18:59:03.134Z,11.00
2023-02-22T19:01:31.761Z,11.00
2023-02-22T19:04:00.717Z,11.00
2023-02-22T19:06:27.939Z,11.00
2023-02-22T19:08:54.932Z,11.00
2023-02-22T19:11:24.175Z,11.00
2023-02-22T19:13:54.771Z,10.90
2023-02-22T19:16:24.580Z,11.00
2023-02-22T19:18:57.234Z,11.00
2023-02-22T19:21:26.175Z,11.00
2023-02-22T19:23:53.449Z,11.00
2023-02-22T19:26:25.820Z,11.00
2023-02-22T19:28:54.987Z,10.90
2023-02-22T19:31:31.228Z,10.90
2023-02-22T19:34:04.564Z,11.00
2023-02-22T19:36:32.682Z,11.00
2023-02-22T19:39:03.252Z,10.90
2023-02-22T19:41:30.790Z,10.80
2023-02-22T19:43:58.689Z,10.80
2023-02-22T19:46:25.895Z,10.70
2023-02-22T19:48:55.310Z,10.70
2023-02-22T19:51:25.578Z,10.60
2023-02-22T19:53:53.506Z,10.70
2023-02-22T19:56:27.165Z,10.60
2023-02-22T19:58:56.528Z,10.60
2023-02-22T20:01:26.448Z,10.60
2023-02-22T20:03:57.668Z,10.70
2023-02-22T20:06:28.231Z,10.70
2023-02-22T20:08:57.005Z,10.70
2023-02-22T20:11:25.027Z,10.70
2023-02-22T20:13:52.138Z,10.60
2023-02-22T20:16:19.275Z,10.60
2023-02-22T20:18:48.558Z,10.50
2023-02-22T20:21:32.929Z,10.60
2023-02-22T20:24:04.564Z,10.60
2023-02-22T20:26:34.190Z,10.50
2023-02-22T20:29:04.027Z,10.50
2023-02-22T20:31:32.634Z,10.40
2023-02-22T20:34:01.018Z,10.40
2023-02-22T20:36:30.033Z,10.40
2023-02-22T20:38:59.674Z,10.30
2023-02-22T20:44:45.261Z,10.20
2023-02-22T20:47:12.513Z,10.30
2023-02-22T20:49:39.791Z,10.30
2023-02-22T20:52:06.933Z,10.30
2023-02-22T20:54:35.276Z,10.30
2023-02-22T20:57:02.344Z,10.30
2023-02-22T20:59:29.374Z,10.20
2023-02-22T21:01:56.440Z,10.20
2023-02-22T21:04:23.530Z,10.10
2023-02-22T21:06:50.684Z,9.90
2023-02-22T21:09:20.355Z,9.90
2023-02-22T21:11:47.472Z,9.80
2023-02-22T21:14:18.693Z,9.80
2023-02-22T21:16:48.483Z,9.70
2023-02-22T21:19:27.808Z,9.70
2023-02-22T21:21:57.925Z,9.60
2023-02-22T21:24:26.688Z,9.60
2023-02-22T21:26:53.875Z,9.50
2023-02-22T21:29:20.954Z,9.50
2023-02-22T21:31:48.180Z,9.40
2023-02-22T21:34:17.519Z,9.40
2023-02-22T21:36:45.610Z,9.40
2023-02-22T21:39:19.158Z,9.40
2023-02-22T21:41:51.105Z,9.30
2023-02-22T21:44:19.104Z,9.40
2023-02-22T21:46:48.824Z,9.30
2023-02-22T21:49:16.825Z,9.30
2023-02-22T21:51:45.001Z,9.30
2023-02-22T21:54:12.851Z,9.30
2023-02-22T21:56:42.218Z,9.20
2023-02-22T21:59:19.045Z,9.20
2023-02-22T22:01:50.097Z,9.20
2023-02-22T22:04:20.073Z,9.30
2023-02-22T22:06:48.981Z,9.30
2023-02-22T22:09:19.193Z,9.30
2023-02-22T22:11:51.814Z,9.30
2023-02-22T22:14:20.615Z,9.20
2023-02-22T22:16:58.597Z,9.20
2023-02-22T22:19:30.363Z,9.10
2023-02-22T22:21:58.220Z,9.10
2023-02-22T22:24:28.871Z,9.10
2023-02-22T22:26:56.337Z,9.00
2023-02-22T22:29:24.934Z,9.00
2023-02-22T22:31:52.531Z,9.00
2023-02-22T22:34:19.614Z,9.00
2023-02-22T22:36:46.673Z,9.00
2023-02-22T22:39:14.201Z,9.00
2023-02-22T22:41:42.278Z,9.00
2023-02-22T22:44:10.937Z,9.00
2023-02-22T22:46:39.710Z,9.00
2023-02-22T22:49:12.378Z,9.00
2023-02-22T22:51:43.198Z,9.00
2023-02-22T22:54:10.801Z,9.10
2023-02-22T22:56:38.795Z,9.00
2023-02-22T22:59:08.299Z,9.00
2023-02-22T23:01:44.870Z,9.00
2023-02-22T23:04:18.314Z,9.00
2023-02-22T23:06:50.755Z,9.00
2023-02-22T23:09:21.656Z,8.90
2023-02-22T23:11:56.410Z,8.90
2023-02-22T23:14:26.611Z,8.90
2023-02-22T23:17:00.099Z,9.00
2023-02-22T23:19:27.220Z,9.00
2023-02-22T23:21:56.037Z,9.00
2023-02-22T23:24:27.171Z,9.00
2023-02-22T23:26:59.565Z,9.00
2023-02-22T23:29:27.297Z,9.00
2023-02-22T23:31:55.162Z,9.00
2023-02-22T23:34:23.277Z,9.00
2023-02-22T23:36:54.251Z,9.00
2023-02-22T23:39:22.884Z,9.00
2023-02-22T23:42:01.336Z,9.00
2023-02-22T23:44:29.547Z,9.00
2023-02-22T23:46:56.637Z,8.90
2023-02-22T23:49:26.659Z,8.90
2023-02-22T23:51:53.995Z,8.80
2023-02-22T23:54:21.613Z,8.80
2023-02-22T23:56:58.118Z,8.80
2023-02-22T23:59:26.577Z,8.80
